sensor_id;sensor_type;location;lat;lon;timestamp;P1;durP1;ratioP1;P2;durP2;ratioP2
29814;SDS011;16708;50.426;7.664;2023-04-24T00:03:31;1.10;;;0.60;;
29814;SDS011;16708;50.426;7.664;2023-04-24T00:08:26;1.20;;;0.70;;
29814;SDS011;16708;50.426;7.664;2023-04-24T00:13:20;1.70;;;0.60;;
29814;SDS011;16708;50.426;7.664;2023-04-24T00:18:15;1.30;;;0.60;;
29814;SDS011;16708;50.426;7.664;2023-04-24T00:23:09;2.60;;;0.60;;
29814;SDS011;16708;50.426;7.664;2023-04-24T00:28:03;1.60;;;0.70;;
29814;SDS011;16708;50.426;7.664;2023-04-24T00:32:57;1.90;;;0.70;;
29814;SDS011;16708;50.426;7.664;2023-04-24T00:37:51;1.20;;;0.60;;
29814;SDS011;16708;50.426;7.664;2023-04-24T00:42:45;1.40;;;0.70;;
29814;SDS011;16708;50.426;7.664;2023-04-24T00:47:40;0.50;;;0.40;;
29814;SDS011;16708;50.426;7.664;2023-04-24T00:52:34;0.80;;;0.50;;
29814;SDS011;16708;50.426;7.664;2023-04-24T00:57:27;0.40;;;0.30;;
29814;SDS011;16708;50.426;7.664;2023-04-24T01:02:21;2.20;;;0.50;;
29814;SDS011;16708;50.426;7.664;2023-04-24T01:07:16;2.70;;;0.30;;
29814;SDS011;16708;50.426;7.664;2023-04-24T01:12:10;0.30;;;0.30;;
29814;SDS011;16708;50.426;7.664;2023-04-24T01:17:04;0.60;;;0.30;;
29814;SDS011;16708;50.426;7.664;2023-04-24T01:21:59;2.20;;;0.40;;
29814;SDS011;16708;50.426;7.664;2023-04-24T01:26:53;1.00;;;0.30;;
29814;SDS011;16708;50.426;7.664;2023-04-24T01:31:49;1.50;;;0.40;;
29814;SDS011;16708;50.426;7.664;2023-04-24T01:36:42;1.70;;;0.30;;
29814;SDS011;16708;50.426;7.664;2023-04-24T01:41:38;1.50;;;0.50;;
29814;SDS011;16708;50.426;7.664;2023-04-24T01:46:30;2.10;;;0.30;;
29814;SDS011;16708;50.426;7.664;2023-04-24T01:51:24;1.20;;;0.40;;
29814;SDS011;16708;50.426;7.664;2023-04-24T01:56:16;0.80;;;0.50;;
29814;SDS011;16708;50.426;7.664;2023-04-24T02:06:05;1.40;;;0.60;;
29814;SDS011;16708;50.426;7.664;2023-04-24T02:10:59;0.50;;;0.50;;
29814;SDS011;16708;50.426;7.664;2023-04-24T02:15:54;1.50;;;0.70;;
29814;SDS011;16708;50.426;7.664;2023-04-24T02:20:48;2.90;;;0.70;;
29814;SDS011;16708;50.426;7.664;2023-04-24T02:25:42;2.60;;;1.30;;
29814;SDS011;16708;50.426;7.664;2023-04-24T02:30:36;2.10;;;0.90;;
29814;SDS011;16708;50.426;7.664;2023-04-24T02:35:30;2.60;;;0.80;;
29814;SDS011;16708;50.426;7.664;2023-04-24T02:40:24;2.00;;;0.80;;
29814;SDS011;16708;50.426;7.664;2023-04-24T02:45:18;1.40;;;0.80;;
29814;SDS011;16708;50.426;7.664;2023-04-24T02:50:12;2.50;;;1.00;;
29814;SDS011;16708;50.426;7.664;2023-04-24T02:55:06;1.50;;;1.10;;
29814;SDS011;16708;50.426;7.664;2023-04-24T03:00:00;1.90;;;1.10;;
29814;SDS011;16708;50.426;7.664;2023-04-24T03:04:54;1.50;;;1.20;;
29814;SDS011;16708;50.426;7.664;2023-04-24T03:09:49;2.20;;;1.60;;
29814;SDS011;16708;50.426;7.664;2023-04-24T03:14:43;2.90;;;1.90;;
29814;SDS011;16708;50.426;7.664;2023-04-24T03:19:37;4.30;;;2.50;;
29814;SDS011;16708;50.426;7.664;2023-04-24T03:24:31;3.00;;;1.90;;
29814;SDS011;16708;50.426;7.664;2023-04-24T03:29:25;3.90;;;2.20;;
29814;SDS011;16708;50.426;7.664;2023-04-24T03:34:18;2.60;;;2.00;;
29814;SDS011;16708;50.426;7.664;2023-04-24T03:39:13;4.20;;;2.20;;
29814;SDS011;16708;50.426;7.664;2023-04-24T03:44:07;3.80;;;2.40;;
29814;SDS011;16708;50.426;7.664;2023-04-24T03:49:01;5.60;;;2.50;;
29814;SDS011;16708;50.426;7.664;2023-04-24T03:53:54;4.00;;;2.30;;
29814;SDS011;16708;50.426;7.664;2023-04-24T03:58:49;4.70;;;2.30;;
29814;SDS011;16708;50.426;7.664;2023-04-24T04:03:42;4.40;;;2.70;;
29814;SDS011;16708;50.426;7.664;2023-04-24T04:08:36;4.00;;;2.40;;
29814;SDS011;16708;50.426;7.664;2023-04-24T04:13:30;3.90;;;2.30;;
29814;SDS011;16708;50.426;7.664;2023-04-24T04:18:24;5.20;;;2.70;;
29814;SDS011;16708;50.426;7.664;2023-04-24T04:23:19;4.20;;;2.70;;
29814;SDS011;16708;50.426;7.664;2023-04-24T04:28:13;6.80;;;2.80;;
29814;SDS011;16708;50.426;7.664;2023-04-24T04:33:07;3.50;;;2.50;;
29814;SDS011;16708;50.426;7.664;2023-04-24T04:38:02;4.60;;;2.80;;
29814;SDS011;16708;50.426;7.664;2023-04-24T04:42:56;5.10;;;3.30;;
29814;SDS011;16708;50.426;7.664;2023-04-24T04:47:50;5.30;;;3.10;;
29814;SDS011;16708;50.426;7.664;2023-04-24T04:52:44;5.00;;;3.00;;
29814;SDS011;16708;50.426;7.664;2023-04-24T04:57:39;5.10;;;2.80;;
29814;SDS011;16708;50.426;7.664;2023-04-24T05:02:33;4.60;;;2.60;;
29814;SDS011;16708;50.426;7.664;2023-04-24T05:07:27;6.50;;;3.00;;
29814;SDS011;16708;50.426;7.664;2023-04-24T05:12:20;5.90;;;3.00;;
29814;SDS011;16708;50.426;7.664;2023-04-24T05:17:14;5.50;;;3.00;;
29814;SDS011;16708;50.426;7.664;2023-04-24T05:22:08;5.90;;;3.40;;
29814;SDS011;16708;50.426;7.664;2023-04-24T05:27:00;7.00;;;3.30;;
29814;SDS011;16708;50.426;7.664;2023-04-24T05:31:55;6.30;;;3.60;;
29814;SDS011;16708;50.426;7.664;2023-04-24T05:36:49;5.60;;;3.10;;
29814;SDS011;16708;50.426;7.664;2023-04-24T05:41:43;8.20;;;3.70;;
29814;SDS011;16708;50.426;7.664;2023-04-24T05:46:37;7.50;;;3.60;;
29814;SDS011;16708;50.426;7.664;2023-04-24T05:51:31;5.90;;;3.50;;
29814;SDS011;16708;50.426;7.664;2023-04-24T05:56:25;5.30;;;3.70;;
29814;SDS011;16708;50.426;7.664;2023-04-24T06:01:20;6.30;;;3.90;;
29814;SDS011;16708;50.426;7.664;2023-04-24T06:06:15;6.60;;;4.40;;
29814;SDS011;16708;50.426;7.664;2023-04-24T06:11:09;9.90;;;4.20;;
29814;SDS011;16708;50.426;7.664;2023-04-24T06:16:03;8.00;;;4.00;;
29814;SDS011;16708;50.426;7.664;2023-04-24T06:20:57;8.90;;;4.40;;
29814;SDS011;16708;50.426;7.664;2023-04-24T06:25:52;9.10;;;5.20;;
29814;SDS011;16708;50.426;7.664;2023-04-24T06:30:47;8.60;;;4.30;;
29814;SDS011;16708;50.426;7.664;2023-04-24T06:35:40;8.00;;;4.40;;
29814;SDS011;16708;50.426;7.664;2023-04-24T06:40:34;7.70;;;4.50;;
29814;SDS011;16708;50.426;7.664;2023-04-24T06:45:28;6.70;;;4.20;;
29814;SDS011;16708;50.426;7.664;2023-04-24T06:50:22;7.40;;;4.00;;
29814;SDS011;16708;50.426;7.664;2023-04-24T06:55:16;7.30;;;4.20;;
29814;SDS011;16708;50.426;7.664;2023-04-24T07:00:10;7.30;;;4.20;;
29814;SDS011;16708;50.426;7.664;2023-04-24T07:05:04;8.40;;;4.30;;
29814;SDS011;16708;50.426;7.664;2023-04-24T07:09:58;5.70;;;4.10;;
29814;SDS011;16708;50.426;7.664;2023-04-24T07:14:53;7.10;;;3.90;;
29814;SDS011;16708;50.426;7.664;2023-04-24T07:19:47;8.80;;;4.20;;
29814;SDS011;16708;50.426;7.664;2023-04-24T07:24:40;6.80;;;3.90;;
29814;SDS011;16708;50.426;7.664;2023-04-24T07:29:31;7.10;;;4.10;;
29814;SDS011;16708;50.426;7.664;2023-04-24T07:34:25;6.60;;;3.70;;
29814;SDS011;16708;50.426;7.664;2023-04-24T07:39:19;6.00;;;3.70;;
29814;SDS011;16708;50.426;7.664;2023-04-24T07:44:13;7.30;;;4.00;;
29814;SDS011;16708;50.426;7.664;2023-04-24T07:49:08;7.70;;;3.50;;
29814;SDS011;16708;50.426;7.664;2023-04-24T07:54:02;5.50;;;3.10;;
29814;SDS011;16708;50.426;7.664;2023-04-24T07:58:56;5.40;;;2.90;;
29814;SDS011;16708;50.426;7.664;2023-04-24T08:03:50;4.30;;;2.60;;
29814;SDS011;16708;50.426;7.664;2023-04-24T08:08:45;8.60;;;3.10;;
29814;SDS011;16708;50.426;7.664;2023-04-24T08:13:39;3.70;;;2.60;;
29814;SDS011;16708;50.426;7.664;2023-04-24T08:18:31;5.10;;;2.60;;
29814;SDS011;16708;50.426;7.664;2023-04-24T08:23:25;3.50;;;2.10;;
29814;SDS011;16708;50.426;7.664;2023-04-24T08:28:20;3.70;;;2.20;;
29814;SDS011;16708;50.426;7.664;2023-04-24T08:33:14;4.10;;;2.00;;
29814;SDS011;16708;50.426;7.664;2023-04-24T08:38:09;5.70;;;2.10;;
29814;SDS011;16708;50.426;7.664;2023-04-24T08:43:03;3.10;;;2.00;;
29814;SDS011;16708;50.426;7.664;2023-04-24T08:47:57;3.90;;;2.00;;
29814;SDS011;16708;50.426;7.664;2023-04-24T08:52:51;8.10;;;2.30;;
29814;SDS011;16708;50.426;7.664;2023-04-24T08:57:46;5.70;;;2.30;;
29814;SDS011;16708;50.426;7.664;2023-04-24T09:02:40;3.60;;;2.30;;
29814;SDS011;16708;50.426;7.664;2023-04-24T09:07:34;4.60;;;2.20;;
29814;SDS011;16708;50.426;7.664;2023-04-24T09:12:27;3.70;;;2.30;;
29814;SDS011;16708;50.426;7.664;2023-04-24T09:17:21;3.50;;;1.90;;
29814;SDS011;16708;50.426;7.664;2023-04-24T09:22:16;4.90;;;2.40;;
29814;SDS011;16708;50.426;7.664;2023-04-24T09:27:10;2.70;;;1.90;;
29814;SDS011;16708;50.426;7.664;2023-04-24T09:41:54;3.80;;;2.10;;
29814;SDS011;16708;50.426;7.664;2023-04-24T09:46:47;4.50;;;1.80;;
29814;SDS011;16708;50.426;7.664;2023-04-24T09:51:41;3.00;;;2.10;;
29814;SDS011;16708;50.426;7.664;2023-04-24T09:56:33;8.70;;;4.30;;
29814;SDS011;16708;50.426;7.664;2023-04-24T10:01:27;8.00;;;3.50;;
29814;SDS011;16708;50.426;7.664;2023-04-24T10:06:19;4.00;;;1.80;;
29814;SDS011;16708;50.426;7.664;2023-04-24T10:11:14;1.40;;;1.20;;
29814;SDS011;16708;50.426;7.664;2023-04-24T10:16:08;2.10;;;0.90;;
29814;SDS011;16708;50.426;7.664;2023-04-24T10:21:03;1.70;;;1.20;;
29814;SDS011;16708;50.426;7.664;2023-04-24T10:25:58;2.80;;;0.90;;
29814;SDS011;16708;50.426;7.664;2023-04-24T10:30:52;0.90;;;0.80;;
29814;SDS011;16708;50.426;7.664;2023-04-24T10:35:55;1.40;;;0.80;;
29814;SDS011;16708;50.426;7.664;2023-04-24T10:45:34;1.30;;;0.80;;
29814;SDS011;16708;50.426;7.664;2023-04-24T10:50:28;1.40;;;0.90;;
29814;SDS011;16708;50.426;7.664;2023-04-24T11:00:16;1.30;;;1.00;;
29814;SDS011;16708;50.426;7.664;2023-04-24T11:05:10;0.90;;;0.80;;
29814;SDS011;16708;50.426;7.664;2023-04-24T11:10:06;1.60;;;1.10;;
29814;SDS011;16708;50.426;7.664;2023-04-24T11:14:59;2.80;;;1.50;;
29814;SDS011;16708;50.426;7.664;2023-04-24T11:19:53;2.80;;;1.60;;
29814;SDS011;16708;50.426;7.664;2023-04-24T11:24:46;3.00;;;1.10;;
29814;SDS011;16708;50.426;7.664;2023-04-24T11:29:40;2.40;;;1.30;;
29814;SDS011;16708;50.426;7.664;2023-04-24T11:34:34;2.20;;;1.50;;
29814;SDS011;16708;50.426;7.664;2023-04-24T11:39:29;4.20;;;1.70;;
29814;SDS011;16708;50.426;7.664;2023-04-24T11:49:17;4.00;;;2.00;;
29814;SDS011;16708;50.426;7.664;2023-04-24T11:54:11;2.30;;;1.60;;
29814;SDS011;16708;50.426;7.664;2023-04-24T11:59:05;3.00;;;1.70;;
29814;SDS011;16708;50.426;7.664;2023-04-24T12:04:00;3.30;;;1.60;;
29814;SDS011;16708;50.426;7.664;2023-04-24T12:08:55;2.70;;;1.70;;
29814;SDS011;16708;50.426;7.664;2023-04-24T12:13:50;2.40;;;1.40;;
29814;SDS011;16708;50.426;7.664;2023-04-24T12:18:44;3.30;;;1.70;;
29814;SDS011;16708;50.426;7.664;2023-04-24T12:23:38;3.90;;;2.10;;
29814;SDS011;16708;50.426;7.664;2023-04-24T12:28:32;4.40;;;2.50;;
29814;SDS011;16708;50.426;7.664;2023-04-24T12:33:25;3.10;;;2.30;;
29814;SDS011;16708;50.426;7.664;2023-04-24T12:38:19;5.00;;;2.90;;
29814;SDS011;16708;50.426;7.664;2023-04-24T12:43:12;7.50;;;3.80;;
29814;SDS011;16708;50.426;7.664;2023-04-24T12:48:06;6.00;;;3.50;;
29814;SDS011;16708;50.426;7.664;2023-04-24T12:53:01;9.10;;;3.50;;
29814;SDS011;16708;50.426;7.664;2023-04-24T12:57:54;6.60;;;3.10;;
29814;SDS011;16708;50.426;7.664;2023-04-24T13:02:50;6.20;;;2.90;;
29814;SDS011;16708;50.426;7.664;2023-04-24T13:07:45;6.90;;;3.00;;
29814;SDS011;16708;50.426;7.664;2023-04-24T13:12:38;6.30;;;3.00;;
29814;SDS011;16708;50.426;7.664;2023-04-24T13:17:32;6.70;;;3.60;;
29814;SDS011;16708;50.426;7.664;2023-04-24T13:22:26;6.10;;;3.70;;
29814;SDS011;16708;50.426;7.664;2023-04-24T13:27:19;8.40;;;4.00;;
29814;SDS011;16708;50.426;7.664;2023-04-24T13:32:12;9.60;;;4.20;;
29814;SDS011;16708;50.426;7.664;2023-04-24T13:37:07;12.30;;;5.10;;
29814;SDS011;16708;50.426;7.664;2023-04-24T13:42:01;14.40;;;5.40;;
29814;SDS011;16708;50.426;7.664;2023-04-24T13:46:55;11.70;;;5.70;;
29814;SDS011;16708;50.426;7.664;2023-04-24T13:51:50;9.90;;;5.40;;
29814;SDS011;16708;50.426;7.664;2023-04-24T13:56:44;8.50;;;4.50;;
29814;SDS011;16708;50.426;7.664;2023-04-24T14:01:38;11.10;;;4.50;;
29814;SDS011;16708;50.426;7.664;2023-04-24T14:06:32;8.20;;;4.10;;
29814;SDS011;16708;50.426;7.664;2023-04-24T14:11:25;7.20;;;4.00;;
29814;SDS011;16708;50.426;7.664;2023-04-24T14:16:20;7.70;;;3.90;;
29814;SDS011;16708;50.426;7.664;2023-04-24T14:21:13;9.40;;;4.30;;
29814;SDS011;16708;50.426;7.664;2023-04-24T14:26:07;7.70;;;4.10;;
29814;SDS011;16708;50.426;7.664;2023-04-24T14:31:01;7.80;;;4.60;;
29814;SDS011;16708;50.426;7.664;2023-04-24T14:35:55;8.60;;;4.20;;
29814;SDS011;16708;50.426;7.664;2023-04-24T14:40:49;7.30;;;3.90;;
29814;SDS011;16708;50.426;7.664;2023-04-24T14:45:43;10.90;;;4.70;;
29814;SDS011;16708;50.426;7.664;2023-04-24T14:50:37;7.40;;;4.20;;
29814;SDS011;16708;50.426;7.664;2023-04-24T14:55:31;8.30;;;3.90;;
29814;SDS011;16708;50.426;7.664;2023-04-24T15:00:25;8.80;;;4.30;;
29814;SDS011;16708;50.426;7.664;2023-04-24T15:05:20;8.60;;;3.40;;
29814;SDS011;16708;50.426;7.664;2023-04-24T15:10:15;6.00;;;3.20;;
29814;SDS011;16708;50.426;7.664;2023-04-24T15:15:09;8.20;;;3.70;;
29814;SDS011;16708;50.426;7.664;2023-04-24T15:20:03;7.10;;;3.50;;
29814;SDS011;16708;50.426;7.664;2023-04-24T15:24:57;7.90;;;3.80;;
29814;SDS011;16708;50.426;7.664;2023-04-24T15:29:50;8.10;;;3.60;;
29814;SDS011;16708;50.426;7.664;2023-04-24T15:34:44;6.90;;;3.50;;
29814;SDS011;16708;50.426;7.664;2023-04-24T15:39:39;6.70;;;4.00;;
29814;SDS011;16708;50.426;7.664;2023-04-24T15:44:34;9.50;;;4.20;;
29814;SDS011;16708;50.426;7.664;2023-04-24T15:49:28;7.50;;;4.10;;
29814;SDS011;16708;50.426;7.664;2023-04-24T15:54:22;6.50;;;3.40;;
29814;SDS011;16708;50.426;7.664;2023-04-24T15:59:15;5.40;;;3.40;;
29814;SDS011;16708;50.426;7.664;2023-04-24T16:04:10;8.10;;;3.60;;
29814;SDS011;16708;50.426;7.664;2023-04-24T16:09:06;6.20;;;3.20;;
29814;SDS011;16708;50.426;7.664;2023-04-24T16:14:00;5.00;;;3.40;;
29814;SDS011;16708;50.426;7.664;2023-04-24T16:18:54;4.60;;;3.10;;
29814;SDS011;16708;50.426;7.664;2023-04-24T16:23:49;4.50;;;2.80;;
29814;SDS011;16708;50.426;7.664;2023-04-24T16:28:40;5.60;;;2.80;;
29814;SDS011;16708;50.426;7.664;2023-04-24T16:33:33;5.40;;;2.90;;
29814;SDS011;16708;50.426;7.664;2023-04-24T16:38:26;4.90;;;3.30;;
29814;SDS011;16708;50.426;7.664;2023-04-24T16:43:20;7.00;;;2.90;;
29814;SDS011;16708;50.426;7.664;2023-04-24T16:48:12;6.90;;;3.30;;
29814;SDS011;16708;50.426;7.664;2023-04-24T16:53:06;5.30;;;3.00;;
29814;SDS011;16708;50.426;7.664;2023-04-24T16:58:01;5.60;;;3.30;;
29814;SDS011;16708;50.426;7.664;2023-04-24T17:02:55;6.10;;;3.50;;
29814;SDS011;16708;50.426;7.664;2023-04-24T17:07:49;6.00;;;3.50;;
29814;SDS011;16708;50.426;7.664;2023-04-24T17:12:43;5.10;;;3.30;;
29814;SDS011;16708;50.426;7.664;2023-04-24T17:17:37;6.90;;;4.00;;
29814;SDS011;16708;50.426;7.664;2023-04-24T17:22:31;5.30;;;3.50;;
29814;SDS011;16708;50.426;7.664;2023-04-24T17:27:24;7.90;;;4.10;;
29814;SDS011;16708;50.426;7.664;2023-04-24T17:32:19;6.60;;;4.50;;
29814;SDS011;16708;50.426;7.664;2023-04-24T17:37:13;11.00;;;5.50;;
29814;SDS011;16708;50.426;7.664;2023-04-24T17:42:07;9.20;;;4.40;;
29814;SDS011;16708;50.426;7.664;2023-04-24T17:47:01;9.90;;;4.30;;
29814;SDS011;16708;50.426;7.664;2023-04-24T17:51:55;7.20;;;4.30;;
29814;SDS011;16708;50.426;7.664;2023-04-24T17:56:48;11.70;;;4.70;;
29814;SDS011;16708;50.426;7.664;2023-04-24T18:01:41;9.70;;;5.30;;
29814;SDS011;16708;50.426;7.664;2023-04-24T18:06:37;9.00;;;5.20;;
29814;SDS011;16708;50.426;7.664;2023-04-24T18:11:29;9.10;;;5.10;;
29814;SDS011;16708;50.426;7.664;2023-04-24T18:16:23;13.10;;;5.80;;
29814;SDS011;16708;50.426;7.664;2023-04-24T18:21:17;11.90;;;6.00;;
29814;SDS011;16708;50.426;7.664;2023-04-24T18:26:12;12.20;;;6.20;;
29814;SDS011;16708;50.426;7.664;2023-04-24T18:31:06;13.00;;;6.20;;
29814;SDS011;16708;50.426;7.664;2023-04-24T18:36:00;12.10;;;6.30;;
29814;SDS011;16708;50.426;7.664;2023-04-24T18:40:54;11.10;;;6.30;;
29814;SDS011;16708;50.426;7.664;2023-04-24T18:45:48;12.10;;;6.50;;
29814;SDS011;16708;50.426;7.664;2023-04-24T18:50:42;11.20;;;6.50;;
29814;SDS011;16708;50.426;7.664;2023-04-24T18:55:35;11.80;;;6.70;;
29814;SDS011;16708;50.426;7.664;2023-04-24T19:00:29;14.10;;;7.20;;
29814;SDS011;16708;50.426;7.664;2023-04-24T19:05:22;12.80;;;7.00;;
29814;SDS011;16708;50.426;7.664;2023-04-24T19:10:16;11.90;;;7.00;;
29814;SDS011;16708;50.426;7.664;2023-04-24T19:15:11;14.30;;;6.70;;
29814;SDS011;16708;50.426;7.664;2023-04-24T19:20:05;13.30;;;7.40;;
29814;SDS011;16708;50.426;7.664;2023-04-24T19:24:59;15.70;;;7.60;;
29814;SDS011;16708;50.426;7.664;2023-04-24T19:29:53;13.00;;;7.30;;
29814;SDS011;16708;50.426;7.664;2023-04-24T19:34:47;13.80;;;7.50;;
29814;SDS011;16708;50.426;7.664;2023-04-24T19:39:41;15.10;;;7.40;;
29814;SDS011;16708;50.426;7.664;2023-04-24T19:44:35;12.70;;;7.50;;
29814;SDS011;16708;50.426;7.664;2023-04-24T19:49:28;14.80;;;7.30;;
29814;SDS011;16708;50.426;7.664;2023-04-24T19:54:22;13.70;;;7.40;;
29814;SDS011;16708;50.426;7.664;2023-04-24T19:59:16;14.80;;;7.70;;
29814;SDS011;16708;50.426;7.664;2023-04-24T20:04:11;13.00;;;7.30;;
29814;SDS011;16708;50.426;7.664;2023-04-24T20:09:05;14.50;;;7.60;;
29814;SDS011;16708;50.426;7.664;2023-04-24T20:13:59;12.30;;;7.60;;
29814;SDS011;16708;50.426;7.664;2023-04-24T20:18:54;12.80;;;7.40;;
29814;SDS011;16708;50.426;7.664;2023-04-24T20:23:47;14.30;;;8.10;;
29814;SDS011;16708;50.426;7.664;2023-04-24T20:28:42;11.10;;;7.60;;
29814;SDS011;16708;50.426;7.664;2023-04-24T20:33:36;12.70;;;7.50;;
29814;SDS011;16708;50.426;7.664;2023-04-24T20:38:30;17.80;;;8.80;;
29814;SDS011;16708;50.426;7.664;2023-04-24T20:43:24;16.20;;;9.30;;
29814;SDS011;16708;50.426;7.664;2023-04-24T20:48:18;17.90;;;9.40;;
29814;SDS011;16708;50.426;7.664;2023-04-24T20:53:12;24.90;;;11.40;;
29814;SDS011;16708;50.426;7.664;2023-04-24T20:58:06;25.80;;;11.20;;
29814;SDS011;16708;50.426;7.664;2023-04-24T21:03:00;23.30;;;11.10;;
29814;SDS011;16708;50.426;7.664;2023-04-24T21:07:55;20.50;;;11.10;;
29814;SDS011;16708;50.426;7.664;2023-04-24T21:12:49;22.70;;;11.10;;
29814;SDS011;16708;50.426;7.664;2023-04-24T21:17:43;21.80;;;11.40;;
29814;SDS011;16708;50.426;7.664;2023-04-24T21:22:37;22.20;;;11.90;;
29814;SDS011;16708;50.426;7.664;2023-04-24T21:27:30;20.70;;;11.00;;
29814;SDS011;16708;50.426;7.664;2023-04-24T21:32:25;21.30;;;11.10;;
29814;SDS011;16708;50.426;7.664;2023-04-24T21:37:19;25.40;;;12.10;;
29814;SDS011;16708;50.426;7.664;2023-04-24T21:42:11;21.40;;;11.20;;
29814;SDS011;16708;50.426;7.664;2023-04-24T21:47:06;23.10;;;11.10;;
29814;SDS011;16708;50.426;7.664;2023-04-24T21:52:00;22.90;;;11.80;;
29814;SDS011;16708;50.426;7.664;2023-04-24T21:56:54;24.60;;;11.80;;
29814;SDS011;16708;50.426;7.664;2023-04-24T22:01:49;27.60;;;13.20;;
29814;SDS011;16708;50.426;7.664;2023-04-24T22:06:43;27.80;;;13.50;;
29814;SDS011;16708;50.426;7.664;2023-04-24T22:11:37;27.90;;;13.60;;
29814;SDS011;16708;50.426;7.664;2023-04-24T22:16:31;32.20;;;15.30;;
29814;SDS011;16708;50.426;7.664;2023-04-24T22:21:26;34.70;;;16.00;;
29814;SDS011;16708;50.426;7.664;2023-04-24T22:26:20;35.10;;;15.90;;
29814;SDS011;16708;50.426;7.664;2023-04-24T22:31:14;29.90;;;14.60;;
29814;SDS011;16708;50.426;7.664;2023-04-24T22:36:07;34.60;;;14.50;;
29814;SDS011;16708;50.426;7.664;2023-04-24T22:41:01;32.20;;;15.80;;
29814;SDS011;16708;50.426;7.664;2023-04-24T22:45:55;30.90;;;14.70;;
29814;SDS011;16708;50.426;7.664;2023-04-24T22:50:50;29.20;;;12.90;;
29814;SDS011;16708;50.426;7.664;2023-04-24T22:55:44;31.30;;;12.60;;
29814;SDS011;16708;50.426;7.664;2023-04-24T23:00:38;28.90;;;14.20;;
29814;SDS011;16708;50.426;7.664;2023-04-24T23:05:32;34.50;;;13.90;;
29814;SDS011;16708;50.426;7.664;2023-04-24T23:10:25;23.80;;;11.90;;
29814;SDS011;16708;50.426;7.664;2023-04-24T23:15:20;25.30;;;12.10;;
29814;SDS011;16708;50.426;7.664;2023-04-24T23:20:14;29.20;;;14.10;;
29814;SDS011;16708;50.426;7.664;2023-04-24T23:25:08;27.20;;;13.90;;
29814;SDS011;16708;50.426;7.664;2023-04-24T23:30:02;31.00;;;14.80;;
29814;SDS011;16708;50.426;7.664;2023-04-24T23:34:56;32.50;;;14.40;;
29814;SDS011;16708;50.426;7.664;2023-04-24T23:39:50;37.10;;;15.20;;
29814;SDS011;16708;50.426;7.664;2023-04-24T23:44:43;36.00;;;15.60;;
29814;SDS011;16708;50.426;7.664;2023-04-24T23:49:37;34.10;;;14.60;;
29814;SDS011;16708;50.426;7.664;2023-04-24T23:54:31;32.90;;;15.60;;
29814;SDS011;16708;50.426;7.664;2023-04-24T23:59:25;37.90;;;15.00;;
